sensor_id;sensor_type;location;lat;lon;timestamp;P1;durP1;ratioP1;P2;durP2;ratioP2
35245;SDS011;21379;50.962;6.960;2023-04-15T00:00:24;6.35;;;1.25;;
35245;SDS011;21379;50.962;6.960;2023-04-15T00:02:51;2.92;;;1.63;;
35245;SDS011;21379;50.962;6.960;2023-04-15T00:05:18;6.97;;;2.03;;
35245;SDS011;21379;50.962;6.960;2023-04-15T00:07:45;7.90;;;1.90;;
35245;SDS011;21379;50.962;6.960;2023-04-15T00:10:11;5.28;;;1.52;;
35245;SDS011;21379;50.962;6.960;2023-04-15T00:12:40;4.55;;;1.50;;
35245;SDS011;21379;50.962;6.960;2023-04-15T00:15:07;8.27;;;2.25;;
35245;SDS011;21379;50.962;6.960;2023-04-15T00:17:36;4.93;;;1.75;;
35245;SDS011;21379;50.962;6.960;2023-04-15T00:20:04;9.20;;;1.90;;
35245;SDS011;21379;50.962;6.960;2023-04-15T00:22:32;3.70;;;1.77;;
35245;SDS011;21379;50.962;6.960;2023-04-15T00:24:59;4.15;;;2.08;;
35245;SDS011;21379;50.962;6.960;2023-04-15T00:27:26;3.70;;;1.63;;
35245;SDS011;21379;50.962;6.960;2023-04-15T00:29:55;2.92;;;1.73;;
35245;SDS011;21379;50.962;6.960;2023-04-15T00:32:22;4.38;;;1.95;;
35245;SDS011;21379;50.962;6.960;2023-04-15T00:34:49;4.43;;;1.80;;
35245;SDS011;21379;50.962;6.960;2023-04-15T00:37:17;2.90;;;1.60;;
35245;SDS011;21379;50.962;6.960;2023-04-15T00:39:44;2.78;;;1.67;;
35245;SDS011;21379;50.962;6.960;2023-04-15T00:42:11;9.20;;;2.35;;
35245;SDS011;21379;50.962;6.960;2023-04-15T00:44:38;9.20;;;2.58;;
35245;SDS011;21379;50.962;6.960;2023-04-15T00:47:08;6.90;;;1.60;;
35245;SDS011;21379;50.962;6.960;2023-04-15T00:49:36;3.08;;;1.67;;
35245;SDS011;21379;50.962;6.960;2023-04-15T00:52:03;4.43;;;1.83;;
35245;SDS011;21379;50.962;6.960;2023-04-15T00:54:30;12.18;;;2.28;;
35245;SDS011;21379;50.962;6.960;2023-04-15T00:56:57;2.13;;;1.30;;
35245;SDS011;21379;50.962;6.960;2023-04-15T00:59:24;2.55;;;1.50;;
35245;SDS011;21379;50.962;6.960;2023-04-15T01:01:52;6.05;;;1.67;;
35245;SDS011;21379;50.962;6.960;2023-04-15T01:04:21;4.40;;;1.95;;
35245;SDS011;21379;50.962;6.960;2023-04-15T01:06:47;5.95;;;2.88;;
35245;SDS011;21379;50.962;6.960;2023-04-15T01:09:14;8.93;;;2.88;;
35245;SDS011;21379;50.962;6.960;2023-04-15T01:11:41;8.38;;;2.63;;
35245;SDS011;21379;50.962;6.960;2023-04-15T01:14:09;8.68;;;1.95;;
35245;SDS011;21379;50.962;6.960;2023-04-15T01:16:36;15.35;;;1.90;;
35245;SDS011;21379;50.962;6.960;2023-04-15T01:19:05;10.18;;;1.95;;
35245;SDS011;21379;50.962;6.960;2023-04-15T01:21:36;4.63;;;1.98;;
35245;SDS011;21379;50.962;6.960;2023-04-15T01:24:04;2.78;;;1.60;;
35245;SDS011;21379;50.962;6.960;2023-04-15T01:26:37;7.63;;;2.33;;
35245;SDS011;21379;50.962;6.960;2023-04-15T01:29:06;6.32;;;2.30;;
35245;SDS011;21379;50.962;6.960;2023-04-15T01:31:33;2.95;;;1.40;;
35245;SDS011;21379;50.962;6.960;2023-04-15T01:34:00;6.22;;;1.67;;
35245;SDS011;21379;50.962;6.960;2023-04-15T01:36:27;3.60;;;1.70;;
35245;SDS011;21379;50.962;6.960;2023-04-15T01:38:55;10.85;;;2.85;;
35245;SDS011;21379;50.962;6.960;2023-04-15T01:41:24;8.02;;;2.47;;
35245;SDS011;21379;50.962;6.960;2023-04-15T01:43:53;14.93;;;3.17;;
35245;SDS011;21379;50.962;6.960;2023-04-15T01:46:21;5.97;;;2.17;;
35245;SDS011;21379;50.962;6.960;2023-04-15T01:48:48;5.25;;;2.35;;
35245;SDS011;21379;50.962;6.960;2023-04-15T01:51:15;6.22;;;2.50;;
35245;SDS011;21379;50.962;6.960;2023-04-15T01:53:42;6.85;;;2.50;;
35245;SDS011;21379;50.962;6.960;2023-04-15T01:56:09;2.97;;;1.98;;
35245;SDS011;21379;50.962;6.960;2023-04-15T01:58:36;4.57;;;1.98;;
35245;SDS011;21379;50.962;6.960;2023-04-15T02:01:05;4.13;;;1.63;;
35245;SDS011;21379;50.962;6.960;2023-04-15T02:03:34;4.63;;;2.42;;
35245;SDS011;21379;50.962;6.960;2023-04-15T02:06:01;6.35;;;1.77;;
35245;SDS011;21379;50.962;6.960;2023-04-15T02:08:28;11.55;;;2.13;;
35245;SDS011;21379;50.962;6.960;2023-04-15T02:10:55;6.03;;;2.22;;
35245;SDS011;21379;50.962;6.960;2023-04-15T02:13:23;5.47;;;2.05;;
35245;SDS011;21379;50.962;6.960;2023-04-15T02:15:51;5.32;;;2.22;;
35245;SDS011;21379;50.962;6.960;2023-04-15T02:18:19;5.03;;;1.58;;
35245;SDS011;21379;50.962;6.960;2023-04-15T02:20:46;6.35;;;1.77;;
35245;SDS011;21379;50.962;6.960;2023-04-15T02:23:13;3.67;;;2.47;;
35245;SDS011;21379;50.962;6.960;2023-04-15T02:25:42;2.00;;;1.52;;
35245;SDS011;21379;50.962;6.960;2023-04-15T02:28:10;2.70;;;1.85;;
35245;SDS011;21379;50.962;6.960;2023-04-15T02:30:36;5.97;;;1.88;;
35245;SDS011;21379;50.962;6.960;2023-04-15T02:33:05;4.15;;;2.17;;
35245;SDS011;21379;50.962;6.960;2023-04-15T02:35:33;1.90;;;1.67;;
35245;SDS011;21379;50.962;6.960;2023-04-15T02:38:03;4.18;;;2.58;;
35245;SDS011;21379;50.962;6.960;2023-04-15T02:40:30;4.10;;;2.05;;
35245;SDS011;21379;50.962;6.960;2023-04-15T02:42:57;3.00;;;2.08;;
35245;SDS011;21379;50.962;6.960;2023-04-15T02:45:24;4.20;;;1.75;;
35245;SDS011;21379;50.962;6.960;2023-04-15T02:47:52;6.70;;;2.40;;
35245;SDS011;21379;50.962;6.960;2023-04-15T02:50:19;3.72;;;1.92;;
35245;SDS011;21379;50.962;6.960;2023-04-15T02:52:49;6.70;;;2.30;;
35245;SDS011;21379;50.962;6.960;2023-04-15T02:55:16;4.47;;;2.42;;
35245;SDS011;21379;50.962;6.960;2023-04-15T02:57:43;3.63;;;1.90;;
35245;SDS011;21379;50.962;6.960;2023-04-15T03:00:10;3.63;;;1.70;;
35245;SDS011;21379;50.962;6.960;2023-04-15T03:02:41;6.93;;;2.45;;
35245;SDS011;21379;50.962;6.960;2023-04-15T03:05:10;8.52;;;2.00;;
35245;SDS011;21379;50.962;6.960;2023-04-15T03:07:42;8.95;;;2.42;;
35245;SDS011;21379;50.962;6.960;2023-04-15T03:10:10;4.05;;;2.05;;
35245;SDS011;21379;50.962;6.960;2023-04-15T03:12:38;4.13;;;2.10;;
35245;SDS011;21379;50.962;6.960;2023-04-15T03:15:07;6.38;;;2.08;;
35245;SDS011;21379;50.962;6.960;2023-04-15T03:17:40;2.97;;;1.95;;
35245;SDS011;21379;50.962;6.960;2023-04-15T03:20:07;8.50;;;2.33;;
35245;SDS011;21379;50.962;6.960;2023-04-15T03:22:34;10.85;;;3.03;;
35245;SDS011;21379;50.962;6.960;2023-04-15T03:25:02;4.68;;;1.98;;
35245;SDS011;21379;50.962;6.960;2023-04-15T03:27:32;1.92;;;1.45;;
35245;SDS011;21379;50.962;6.960;2023-04-15T03:30:02;2.10;;;1.52;;
35245;SDS011;21379;50.962;6.960;2023-04-15T03:32:31;5.55;;;2.28;;
35245;SDS011;21379;50.962;6.960;2023-04-15T03:34:58;4.63;;;2.03;;
35245;SDS011;21379;50.962;6.960;2023-04-15T03:37:25;7.53;;;2.05;;
35245;SDS011;21379;50.962;6.960;2023-04-15T03:39:52;3.60;;;2.10;;
35245;SDS011;21379;50.962;6.960;2023-04-15T03:42:19;6.53;;;2.22;;
35245;SDS011;21379;50.962;6.960;2023-04-15T03:44:48;7.88;;;2.30;;
35245;SDS011;21379;50.962;6.960;2023-04-15T03:47:14;4.38;;;2.00;;
35245;SDS011;21379;50.962;6.960;2023-04-15T03:49:41;4.05;;;1.90;;
35245;SDS011;21379;50.962;6.960;2023-04-15T03:52:08;4.88;;;1.75;;
35245;SDS011;21379;50.962;6.960;2023-04-15T03:54:35;3.35;;;2.00;;
35245;SDS011;21379;50.962;6.960;2023-04-15T03:57:02;3.67;;;1.88;;
35245;SDS011;21379;50.962;6.960;2023-04-15T03:59:29;3.92;;;1.98;;
35245;SDS011;21379;50.962;6.960;2023-04-15T04:01:58;6.70;;;2.08;;
35245;SDS011;21379;50.962;6.960;2023-04-15T04:04:25;8.88;;;2.30;;
35245;SDS011;21379;50.962;6.960;2023-04-15T04:06:52;5.72;;;2.13;;
35245;SDS011;21379;50.962;6.960;2023-04-15T04:09:19;3.75;;;2.35;;
35245;SDS011;21379;50.962;6.960;2023-04-15T04:11:46;4.65;;;1.67;;
35245;SDS011;21379;50.962;6.960;2023-04-15T04:14:12;3.65;;;1.90;;
35245;SDS011;21379;50.962;6.960;2023-04-15T04:16:39;4.55;;;2.42;;
35245;SDS011;21379;50.962;6.960;2023-04-15T04:19:08;2.90;;;1.70;;
35245;SDS011;21379;50.962;6.960;2023-04-15T04:21:34;2.15;;;1.55;;
35245;SDS011;21379;50.962;6.960;2023-04-15T04:24:03;4.10;;;2.20;;
35245;SDS011;21379;50.962;6.960;2023-04-15T04:26:30;3.13;;;2.00;;
35245;SDS011;21379;50.962;6.960;2023-04-15T04:28:57;8.43;;;2.78;;
35245;SDS011;21379;50.962;6.960;2023-04-15T04:31:24;7.05;;;2.05;;
35245;SDS011;21379;50.962;6.960;2023-04-15T04:33:51;3.70;;;1.98;;
35245;SDS011;21379;50.962;6.960;2023-04-15T04:36:19;3.25;;;1.98;;
35245;SDS011;21379;50.962;6.960;2023-04-15T04:38:46;7.45;;;2.78;;
35245;SDS011;21379;50.962;6.960;2023-04-15T04:41:13;5.82;;;2.08;;
35245;SDS011;21379;50.962;6.960;2023-04-15T04:43:40;9.38;;;2.28;;
35245;SDS011;21379;50.962;6.960;2023-04-15T04:46:07;6.15;;;2.53;;
35245;SDS011;21379;50.962;6.960;2023-04-15T04:48:34;8.82;;;2.58;;
35245;SDS011;21379;50.962;6.960;2023-04-15T04:51:01;2.53;;;1.70;;
35245;SDS011;21379;50.962;6.960;2023-04-15T04:53:30;10.52;;;3.17;;
35245;SDS011;21379;50.962;6.960;2023-04-15T04:55:56;4.93;;;2.25;;
35245;SDS011;21379;50.962;6.960;2023-04-15T04:58:24;4.22;;;2.47;;
35245;SDS011;21379;50.962;6.960;2023-04-15T05:00:51;6.53;;;3.03;;
35245;SDS011;21379;50.962;6.960;2023-04-15T05:03:18;7.53;;;2.65;;
35245;SDS011;21379;50.962;6.960;2023-04-15T05:05:45;5.32;;;2.20;;
35245;SDS011;21379;50.962;6.960;2023-04-15T05:08:13;7.25;;;2.38;;
35245;SDS011;21379;50.962;6.960;2023-04-15T05:10:41;5.10;;;2.28;;
35245;SDS011;21379;50.962;6.960;2023-04-15T05:13:08;9.63;;;1.98;;
35245;SDS011;21379;50.962;6.960;2023-04-15T05:15:35;4.55;;;2.70;;
35245;SDS011;21379;50.962;6.960;2023-04-15T05:18:05;15.68;;;2.80;;
35245;SDS011;21379;50.962;6.960;2023-04-15T05:20:32;5.53;;;2.40;;
35245;SDS011;21379;50.962;6.960;2023-04-15T05:22:59;4.57;;;2.22;;
35245;SDS011;21379;50.962;6.960;2023-04-15T05:25:26;5.53;;;2.45;;
35245;SDS011;21379;50.962;6.960;2023-04-15T05:27:54;5.07;;;2.53;;
35245;SDS011;21379;50.962;6.960;2023-04-15T05:30:21;7.68;;;2.95;;
35245;SDS011;21379;50.962;6.960;2023-04-15T05:32:48;5.22;;;2.83;;
35245;SDS011;21379;50.962;6.960;2023-04-15T05:35:15;7.13;;;2.45;;
35245;SDS011;21379;50.962;6.960;2023-04-15T05:37:43;5.18;;;2.65;;
35245;SDS011;21379;50.962;6.960;2023-04-15T05:40:11;13.55;;;2.75;;
35245;SDS011;21379;50.962;6.960;2023-04-15T05:42:38;6.75;;;3.53;;
35245;SDS011;21379;50.962;6.960;2023-04-15T05:45:07;15.00;;;3.42;;
35245;SDS011;21379;50.962;6.960;2023-04-15T05:47:34;6.68;;;3.20;;
35245;SDS011;21379;50.962;6.960;2023-04-15T05:50:02;9.85;;;4.13;;
35245;SDS011;21379;50.962;6.960;2023-04-15T05:52:30;4.97;;;2.97;;
35245;SDS011;21379;50.962;6.960;2023-04-15T05:54:57;9.23;;;3.80;;
35245;SDS011;21379;50.962;6.960;2023-04-15T05:57:24;9.68;;;3.72;;
35245;SDS011;21379;50.962;6.960;2023-04-15T05:59:50;10.63;;;5.05;;
35245;SDS011;21379;50.962;6.960;2023-04-15T06:02:19;14.45;;;4.32;;
35245;SDS011;21379;50.962;6.960;2023-04-15T06:04:46;14.20;;;3.35;;
35245;SDS011;21379;50.962;6.960;2023-04-15T06:07:13;13.50;;;2.90;;
35245;SDS011;21379;50.962;6.960;2023-04-15T06:09:40;6.05;;;2.92;;
35245;SDS011;21379;50.962;6.960;2023-04-15T06:12:07;5.82;;;3.17;;
35245;SDS011;21379;50.962;6.960;2023-04-15T06:14:36;6.22;;;3.28;;
35245;SDS011;21379;50.962;6.960;2023-04-15T06:17:03;7.13;;;3.22;;
35245;SDS011;21379;50.962;6.960;2023-04-15T06:19:31;12.02;;;3.53;;
35245;SDS011;21379;50.962;6.960;2023-04-15T06:21:58;5.85;;;3.35;;
35245;SDS011;21379;50.962;6.960;2023-04-15T06:24:25;6.18;;;3.00;;
35245;SDS011;21379;50.962;6.960;2023-04-15T06:26:52;7.47;;;3.90;;
35245;SDS011;21379;50.962;6.960;2023-04-15T06:29:20;5.55;;;3.22;;
35245;SDS011;21379;50.962;6.960;2023-04-15T06:31:47;5.72;;;3.50;;
35245;SDS011;21379;50.962;6.960;2023-04-15T06:34:15;7.03;;;3.90;;
35245;SDS011;21379;50.962;6.960;2023-04-15T06:36:43;6.53;;;2.58;;
35245;SDS011;21379;50.962;6.960;2023-04-15T06:39:10;7.78;;;3.10;;
35245;SDS011;21379;50.962;6.960;2023-04-15T06:41:37;7.85;;;2.97;;
35245;SDS011;21379;50.962;6.960;2023-04-15T06:44:04;5.20;;;2.60;;
35245;SDS011;21379;50.962;6.960;2023-04-15T06:46:31;9.02;;;3.25;;
35245;SDS011;21379;50.962;6.960;2023-04-15T06:48:58;6.68;;;3.38;;
35245;SDS011;21379;50.962;6.960;2023-04-15T06:51:25;6.68;;;4.00;;
35245;SDS011;21379;50.962;6.960;2023-04-15T06:53:53;6.03;;;3.05;;
35245;SDS011;21379;50.962;6.960;2023-04-15T06:56:21;6.03;;;2.78;;
35245;SDS011;21379;50.962;6.960;2023-04-15T06:58:48;5.43;;;3.25;;
35245;SDS011;21379;50.962;6.960;2023-04-15T07:01:15;6.32;;;3.33;;
35245;SDS011;21379;50.962;6.960;2023-04-15T07:03:42;7.30;;;3.25;;
35245;SDS011;21379;50.962;6.960;2023-04-15T07:06:09;6.47;;;3.92;;
35245;SDS011;21379;50.962;6.960;2023-04-15T07:08:37;13.43;;;3.20;;
35245;SDS011;21379;50.962;6.960;2023-04-15T07:11:05;7.82;;;3.83;;
35245;SDS011;21379;50.962;6.960;2023-04-15T07:13:32;4.72;;;3.33;;
35245;SDS011;21379;50.962;6.960;2023-04-15T07:15:59;10.68;;;4.47;;
35245;SDS011;21379;50.962;6.960;2023-04-15T07:18:26;5.78;;;3.45;;
35245;SDS011;21379;50.962;6.960;2023-04-15T07:20:53;6.18;;;3.80;;
35245;SDS011;21379;50.962;6.960;2023-04-15T07:23:20;5.68;;;3.75;;
35245;SDS011;21379;50.962;6.960;2023-04-15T07:25:47;6.28;;;4.15;;
35245;SDS011;21379;50.962;6.960;2023-04-15T07:28:16;9.23;;;4.60;;
35245;SDS011;21379;50.962;6.960;2023-04-15T07:30:43;6.32;;;3.85;;
35245;SDS011;21379;50.962;6.960;2023-04-15T07:33:10;10.18;;;3.95;;
35245;SDS011;21379;50.962;6.960;2023-04-15T07:35:36;12.13;;;4.28;;
35245;SDS011;21379;50.962;6.960;2023-04-15T07:38:03;6.57;;;4.63;;
35245;SDS011;21379;50.962;6.960;2023-04-15T07:40:31;6.45;;;3.42;;
35245;SDS011;21379;50.962;6.960;2023-04-15T07:42:58;6.35;;;4.00;;
35245;SDS011;21379;50.962;6.960;2023-04-15T07:45:26;4.97;;;3.15;;
35245;SDS011;21379;50.962;6.960;2023-04-15T07:47:53;6.10;;;4.07;;
35245;SDS011;21379;50.962;6.960;2023-04-15T07:50:21;11.05;;;4.00;;
35245;SDS011;21379;50.962;6.960;2023-04-15T07:52:48;7.68;;;3.45;;
35245;SDS011;21379;50.962;6.960;2023-04-15T07:55:16;12.70;;;3.90;;
35245;SDS011;21379;50.962;6.960;2023-04-15T07:57:47;10.82;;;3.80;;
35245;SDS011;21379;50.962;6.960;2023-04-15T08:00:14;8.48;;;3.63;;
35245;SDS011;21379;50.962;6.960;2023-04-15T08:02:43;9.80;;;4.22;;
35245;SDS011;21379;50.962;6.960;2023-04-15T08:05:12;7.88;;;3.50;;
35245;SDS011;21379;50.962;6.960;2023-04-15T08:07:39;3.35;;;2.35;;
35245;SDS011;21379;50.962;6.960;2023-04-15T08:10:06;4.65;;;2.13;;
35245;SDS011;21379;50.962;6.960;2023-04-15T08:12:34;2.42;;;1.27;;
35245;SDS011;21379;50.962;6.960;2023-04-15T08:15:02;4.82;;;1.40;;
35245;SDS011;21379;50.962;6.960;2023-04-15T08:17:29;6.10;;;1.02;;
35245;SDS011;21379;50.962;6.960;2023-04-15T08:19:58;1.63;;;1.20;;
35245;SDS011;21379;50.962;6.960;2023-04-15T08:22:25;3.78;;;1.30;;
35245;SDS011;21379;50.962;6.960;2023-04-15T08:24:52;1.52;;;1.10;;
35245;SDS011;21379;50.962;6.960;2023-04-15T08:27:18;1.48;;;1.10;;
35245;SDS011;21379;50.962;6.960;2023-04-15T08:29:45;1.73;;;0.98;;
35245;SDS011;21379;50.962;6.960;2023-04-15T08:32:12;2.15;;;0.90;;
35245;SDS011;21379;50.962;6.960;2023-04-15T08:34:40;1.23;;;0.90;;
35245;SDS011;21379;50.962;6.960;2023-04-15T08:37:08;4.13;;;0.85;;
35245;SDS011;21379;50.962;6.960;2023-04-15T08:39:35;2.67;;;0.95;;
35245;SDS011;21379;50.962;6.960;2023-04-15T08:42:03;2.35;;;1.02;;
35245;SDS011;21379;50.962;6.960;2023-04-15T08:44:36;0.50;;;0.50;;
35245;SDS011;21379;50.962;6.960;2023-04-15T08:47:06;2.22;;;1.02;;
35245;SDS011;21379;50.962;6.960;2023-04-15T08:49:33;1.13;;;0.95;;
35245;SDS011;21379;50.962;6.960;2023-04-15T08:52:04;2.03;;;0.98;;
35245;SDS011;21379;50.962;6.960;2023-04-15T08:54:34;4.03;;;0.68;;
35245;SDS011;21379;50.962;6.960;2023-04-15T08:57:01;1.27;;;1.05;;
35245;SDS011;21379;50.962;6.960;2023-04-15T08:59:29;1.88;;;1.00;;
35245;SDS011;21379;50.962;6.960;2023-04-15T09:01:56;2.95;;;1.13;;
35245;SDS011;21379;50.962;6.960;2023-04-15T09:04:23;1.08;;;0.93;;
35245;SDS011;21379;50.962;6.960;2023-04-15T09:06:50;1.10;;;0.82;;
35245;SDS011;21379;50.962;6.960;2023-04-15T09:09:17;2.03;;;1.02;;
35245;SDS011;21379;50.962;6.960;2023-04-15T09:11:45;1.27;;;0.85;;
35245;SDS011;21379;50.962;6.960;2023-04-15T09:14:14;4.40;;;1.33;;
35245;SDS011;21379;50.962;6.960;2023-04-15T09:16:57;2.17;;;1.02;;
35245;SDS011;21379;50.962;6.960;2023-04-15T09:19:25;1.92;;;1.02;;
35245;SDS011;21379;50.962;6.960;2023-04-15T09:21:52;1.58;;;1.05;;
35245;SDS011;21379;50.962;6.960;2023-04-15T09:24:21;3.10;;;1.25;;
35245;SDS011;21379;50.962;6.960;2023-04-15T09:26:52;2.92;;;1.33;;
35245;SDS011;21379;50.962;6.960;2023-04-15T09:29:20;1.65;;;0.95;;
35245;SDS011;21379;50.962;6.960;2023-04-15T09:31:50;1.88;;;0.90;;
35245;SDS011;21379;50.962;6.960;2023-04-15T09:34:18;2.38;;;1.30;;
35245;SDS011;21379;50.962;6.960;2023-04-15T09:36:51;1.80;;;1.30;;
35245;SDS011;21379;50.962;6.960;2023-04-15T09:39:19;2.83;;;1.25;;
35245;SDS011;21379;50.962;6.960;2023-04-15T09:41:46;3.42;;;1.40;;
35245;SDS011;21379;50.962;6.960;2023-04-15T09:44:29;2.45;;;1.17;;
35245;SDS011;21379;50.962;6.960;2023-04-15T09:46:56;1.73;;;1.20;;
35245;SDS011;21379;50.962;6.960;2023-04-15T09:49:23;2.22;;;1.10;;
35245;SDS011;21379;50.962;6.960;2023-04-15T09:51:49;3.58;;;1.00;;
35245;SDS011;21379;50.962;6.960;2023-04-15T09:54:17;1.42;;;1.23;;
35245;SDS011;21379;50.962;6.960;2023-04-15T09:56:45;1.10;;;0.77;;
35245;SDS011;21379;50.962;6.960;2023-04-15T09:59:14;3.92;;;1.20;;
35245;SDS011;21379;50.962;6.960;2023-04-15T10:01:41;1.70;;;1.42;;
35245;SDS011;21379;50.962;6.960;2023-04-15T10:04:08;3.47;;;1.77;;
35245;SDS011;21379;50.962;6.960;2023-04-15T10:06:36;2.85;;;1.00;;
35245;SDS011;21379;50.962;6.960;2023-04-15T10:09:04;3.53;;;1.65;;
35245;SDS011;21379;50.962;6.960;2023-04-15T10:11:32;2.75;;;1.50;;
35245;SDS011;21379;50.962;6.960;2023-04-15T10:14:00;2.88;;;1.90;;
35245;SDS011;21379;50.962;6.960;2023-04-15T10:16:29;3.17;;;1.80;;
35245;SDS011;21379;50.962;6.960;2023-04-15T10:18:59;5.28;;;1.95;;
35245;SDS011;21379;50.962;6.960;2023-04-15T10:21:29;4.07;;;2.13;;
35245;SDS011;21379;50.962;6.960;2023-04-15T10:23:56;3.67;;;2.20;;
35245;SDS011;21379;50.962;6.960;2023-04-15T10:26:24;6.15;;;2.08;;
35245;SDS011;21379;50.962;6.960;2023-04-15T10:28:51;5.35;;;2.22;;
35245;SDS011;21379;50.962;6.960;2023-04-15T10:31:18;4.82;;;2.17;;
35245;SDS011;21379;50.962;6.960;2023-04-15T10:33:48;4.82;;;3.15;;
35245;SDS011;21379;50.962;6.960;2023-04-15T10:36:16;3.45;;;1.73;;
35245;SDS011;21379;50.962;6.960;2023-04-15T10:38:45;5.82;;;1.83;;
35245;SDS011;21379;50.962;6.960;2023-04-15T10:41:12;3.10;;;1.67;;
35245;SDS011;21379;50.962;6.960;2023-04-15T10:43:44;3.28;;;1.85;;
35245;SDS011;21379;50.962;6.960;2023-04-15T10:46:15;3.58;;;1.98;;
35245;SDS011;21379;50.962;6.960;2023-04-15T10:48:52;2.45;;;1.63;;
35245;SDS011;21379;50.962;6.960;2023-04-15T10:53:55;2.53;;;1.42;;
35245;SDS011;21379;50.962;6.960;2023-04-15T10:56:23;2.50;;;1.58;;
35245;SDS011;21379;50.962;6.960;2023-04-15T10:58:50;3.63;;;1.60;;
35245;SDS011;21379;50.962;6.960;2023-04-15T11:01:18;2.42;;;1.30;;
35245;SDS011;21379;50.962;6.960;2023-04-15T11:03:47;4.60;;;1.80;;
35245;SDS011;21379;50.962;6.960;2023-04-15T11:06:16;3.28;;;1.60;;
35245;SDS011;21379;50.962;6.960;2023-04-15T11:08:53;2.58;;;1.30;;
35245;SDS011;21379;50.962;6.960;2023-04-15T11:11:22;1.90;;;1.25;;
35245;SDS011;21379;50.962;6.960;2023-04-15T11:14:13;1.65;;;1.15;;
35245;SDS011;21379;50.962;6.960;2023-04-15T11:16:41;1.65;;;1.10;;
35245;SDS011;21379;50.962;6.960;2023-04-15T11:19:09;1.55;;;1.30;;
35245;SDS011;21379;50.962;6.960;2023-04-15T11:21:37;3.08;;;1.20;;
35245;SDS011;21379;50.962;6.960;2023-04-15T11:24:07;2.50;;;1.55;;
35245;SDS011;21379;50.962;6.960;2023-04-15T11:26:34;3.40;;;1.42;;
35245;SDS011;21379;50.962;6.960;2023-04-15T11:29:01;2.72;;;1.50;;
35245;SDS011;21379;50.962;6.960;2023-04-15T11:31:29;4.45;;;2.10;;
35245;SDS011;21379;50.962;6.960;2023-04-15T11:33:57;1.80;;;1.38;;
35245;SDS011;21379;50.962;6.960;2023-04-15T11:36:26;2.53;;;1.23;;
35245;SDS011;21379;50.962;6.960;2023-04-15T11:38:57;2.47;;;1.42;;
35245;SDS011;21379;50.962;6.960;2023-04-15T11:41:25;1.60;;;1.35;;
35245;SDS011;21379;50.962;6.960;2023-04-15T11:43:52;4.97;;;1.52;;
35245;SDS011;21379;50.962;6.960;2023-04-15T11:46:19;5.35;;;2.22;;
35245;SDS011;21379;50.962;6.960;2023-04-15T11:48:47;1.88;;;1.67;;
35245;SDS011;21379;50.962;6.960;2023-04-15T11:51:13;2.85;;;1.80;;
35245;SDS011;21379;50.962;6.960;2023-04-15T11:53:41;2.47;;;1.65;;
35245;SDS011;21379;50.962;6.960;2023-04-15T11:56:16;1.70;;;1.60;;
35245;SDS011;21379;50.962;6.960;2023-04-15T11:58:45;2.45;;;1.85;;
35245;SDS011;21379;50.962;6.960;2023-04-15T12:01:14;2.30;;;2.10;;
35245;SDS011;21379;50.962;6.960;2023-04-15T12:03:42;3.15;;;2.50;;
35245;SDS011;21379;50.962;6.960;2023-04-15T12:06:11;4.47;;;2.80;;
35245;SDS011;21379;50.962;6.960;2023-04-15T12:08:57;3.80;;;3.03;;
35245;SDS011;21379;50.962;6.960;2023-04-15T12:11:37;5.65;;;2.63;;
35245;SDS011;21379;50.962;6.960;2023-04-15T12:14:06;3.75;;;2.88;;
35245;SDS011;21379;50.962;6.960;2023-04-15T12:16:35;3.55;;;2.38;;
35245;SDS011;21379;50.962;6.960;2023-04-15T12:19:05;5.28;;;2.92;;
35245;SDS011;21379;50.962;6.960;2023-04-15T12:21:36;3.05;;;2.53;;
35245;SDS011;21379;50.962;6.960;2023-04-15T12:24:06;2.95;;;2.55;;
35245;SDS011;21379;50.962;6.960;2023-04-15T12:26:34;4.28;;;3.45;;
35245;SDS011;21379;50.962;6.960;2023-04-15T12:29:09;6.38;;;2.90;;
35245;SDS011;21379;50.962;6.960;2023-04-15T12:31:36;6.47;;;3.60;;
35245;SDS011;21379;50.962;6.960;2023-04-15T12:34:12;4.78;;;2.58;;
35245;SDS011;21379;50.962;6.960;2023-04-15T12:36:40;3.92;;;2.85;;
35245;SDS011;21379;50.962;6.960;2023-04-15T12:39:07;5.05;;;3.00;;
35245;SDS011;21379;50.962;6.960;2023-04-15T12:41:34;8.23;;;3.25;;
35245;SDS011;21379;50.962;6.960;2023-04-15T12:44:03;7.35;;;3.35;;
35245;SDS011;21379;50.962;6.960;2023-04-15T12:46:29;4.57;;;3.75;;
35245;SDS011;21379;50.962;6.960;2023-04-15T12:48:56;3.88;;;3.28;;
35245;SDS011;21379;50.962;6.960;2023-04-15T12:51:24;4.60;;;3.92;;
35245;SDS011;21379;50.962;6.960;2023-04-15T12:53:51;5.95;;;3.70;;
35245;SDS011;21379;50.962;6.960;2023-04-15T12:56:18;15.82;;;5.38;;
35245;SDS011;21379;50.962;6.960;2023-04-15T12:58:46;4.70;;;3.60;;
35245;SDS011;21379;50.962;6.960;2023-04-15T13:01:13;4.47;;;3.35;;
35245;SDS011;21379;50.962;6.960;2023-04-15T13:03:40;4.30;;;3.08;;
35245;SDS011;21379;50.962;6.960;2023-04-15T13:06:07;6.05;;;3.60;;
35245;SDS011;21379;50.962;6.960;2023-04-15T13:08:34;4.80;;;3.30;;
35245;SDS011;21379;50.962;6.960;2023-04-15T13:11:02;6.55;;;3.50;;
35245;SDS011;21379;50.962;6.960;2023-04-15T13:13:30;4.82;;;2.60;;
35245;SDS011;21379;50.962;6.960;2023-04-15T13:15:58;4.25;;;2.20;;
35245;SDS011;21379;50.962;6.960;2023-04-15T13:18:25;3.75;;;2.17;;
35245;SDS011;21379;50.962;6.960;2023-04-15T13:20:53;4.95;;;2.42;;
35245;SDS011;21379;50.962;6.960;2023-04-15T13:23:20;6.57;;;2.83;;
35245;SDS011;21379;50.962;6.960;2023-04-15T13:25:47;7.55;;;2.40;;
35245;SDS011;21379;50.962;6.960;2023-04-15T13:28:14;4.18;;;2.92;;
35245;SDS011;21379;50.962;6.960;2023-04-15T13:30:41;3.53;;;2.28;;
35245;SDS011;21379;50.962;6.960;2023-04-15T13:33:09;3.22;;;2.40;;
35245;SDS011;21379;50.962;6.960;2023-04-15T13:35:36;8.90;;;2.97;;
35245;SDS011;21379;50.962;6.960;2023-04-15T13:38:04;4.10;;;2.72;;
35245;SDS011;21379;50.962;6.960;2023-04-15T13:40:31;4.80;;;2.58;;
35245;SDS011;21379;50.962;6.960;2023-04-15T13:42:58;4.57;;;2.70;;
35245;SDS011;21379;50.962;6.960;2023-04-15T13:45:26;7.78;;;2.60;;
35245;SDS011;21379;50.962;6.960;2023-04-15T13:47:54;4.88;;;2.25;;
35245;SDS011;21379;50.962;6.960;2023-04-15T13:50:22;4.35;;;2.55;;
35245;SDS011;21379;50.962;6.960;2023-04-15T13:52:49;5.20;;;2.97;;
35245;SDS011;21379;50.962;6.960;2023-04-15T13:55:16;3.03;;;2.25;;
35245;SDS011;21379;50.962;6.960;2023-04-15T13:57:43;3.72;;;2.35;;
35245;SDS011;21379;50.962;6.960;2023-04-15T14:00:11;3.67;;;2.17;;
35245;SDS011;21379;50.962;6.960;2023-04-15T14:02:39;2.58;;;1.67;;
35245;SDS011;21379;50.962;6.960;2023-04-15T14:05:06;3.78;;;1.63;;
35245;SDS011;21379;50.962;6.960;2023-04-15T14:07:35;3.17;;;1.85;;
35245;SDS011;21379;50.962;6.960;2023-04-15T14:10:02;3.63;;;1.73;;
35245;SDS011;21379;50.962;6.960;2023-04-15T14:12:30;1.63;;;1.20;;
35245;SDS011;21379;50.962;6.960;2023-04-15T14:14:57;3.03;;;1.65;;
35245;SDS011;21379;50.962;6.960;2023-04-15T14:17:24;2.30;;;1.50;;
35245;SDS011;21379;50.962;6.960;2023-04-15T14:19:50;2.78;;;1.52;;
35245;SDS011;21379;50.962;6.960;2023-04-15T14:22:17;2.20;;;1.45;;
35245;SDS011;21379;50.962;6.960;2023-04-15T14:24:46;2.60;;;1.60;;
35245;SDS011;21379;50.962;6.960;2023-04-15T14:27:13;4.50;;;1.58;;
35245;SDS011;21379;50.962;6.960;2023-04-15T14:29:40;2.55;;;1.67;;
35245;SDS011;21379;50.962;6.960;2023-04-15T14:32:08;3.45;;;2.03;;
35245;SDS011;21379;50.962;6.960;2023-04-15T14:34:35;3.10;;;2.05;;
35245;SDS011;21379;50.962;6.960;2023-04-15T14:37:02;1.92;;;1.38;;
35245;SDS011;21379;50.962;6.960;2023-04-15T14:39:29;5.97;;;1.67;;
35245;SDS011;21379;50.962;6.960;2023-04-15T14:41:57;1.35;;;1.23;;
35245;SDS011;21379;50.962;6.960;2023-04-15T14:44:24;3.47;;;1.90;;
35245;SDS011;21379;50.962;6.960;2023-04-15T14:46:51;6.70;;;2.17;;
35245;SDS011;21379;50.962;6.960;2023-04-15T14:49:18;2.92;;;2.10;;
35245;SDS011;21379;50.962;6.960;2023-04-15T14:51:46;4.50;;;3.10;;
35245;SDS011;21379;50.962;6.960;2023-04-15T14:54:13;3.60;;;2.50;;